Terminal Aerodrome Forecast
Issued by NWS

Home | Current Version | Previous Version | Graphics & Text | Print | Product List | Glossary On
Versions: 1 2 3 4 5 6 7 8 9 10 11 12 13 14 15 16 17 18 19 20
000
FTUS43 KICT 302327
TAFCNU
TAF
KCNU 302327Z 3100/3124 06005KT P6SM VCTS SCT035CB BKN070
     FM310300 05005KT P6SM VCSH SCT040 BKN100
     FM311600 06010KT P6SM VCTS BKN035CB=

USA.gov is the U.S. government's official web portal to all federal, state and local government web resources and services.